Time;durP1;ratioP1;P1;durP2;ratioP2;P2;SDS_P1;SDS_P2;PMS_P1;PMS_P2;Temp;Humidity;BMP_temperature;BMP_pressure;BME280_temperature;BME280_humidity;BME280_pressure;Samples;Min_cycle;Max_cycle;Signal;HPM_P1;HPM_P2
2021/06/04 00:01:19;;;;;;;3.62;2.72;;;;;;;36.25;33.33;160735.27;1756887;81;21225;-76
2021/06/04 00:03:54;;;;;;;3.72;2.52;;;;;;;36.36;33.15;160764.69;1765075;81;21173;-75
2021/06/04 00:06:26;;;;;;;3.98;2.65;;;;;;;36.64;32.89;160839.72;1787890;80;21251;-76
2021/06/04 00:09:00;;;;;;;3.42;2.80;;;;;;;36.53;32.91;160808.91;1773386;80;21149;-76
2021/06/04 00:11:42;;;;;;;3.60;2.40;;;;;;;36.46;32.96;160790.19;1791929;80;21359;-76
2021/06/04 00:14:27;;;;;;;2.60;2.30;;;;;;;36.36;33.05;160763.39;1756608;81;21345;-76
2021/06/04 00:17:07;;;;;;;2.65;2.33;;;;;;;36.61;32.85;160831.67;1750877;81;21414;-76
2021/06/04 00:19:40;;;;;;;5.15;2.87;;;;;;;36.59;32.87;160826.31;1791444;80;21736;-76
2021/06/04 00:22:17;;;;;;;3.40;2.50;;;;;;;36.45;32.90;160787.50;1756768;81;21328;-76
2021/06/04 00:24:52;;;;;;;2.40;2.20;;;;;;;36.13;33.20;160701.84;1761128;80;21351;-75
2021/06/04 00:27:25;;;;;;;3.35;2.58;;;;;;;36.20;33.19;160720.55;1753014;81;21189;-76
2021/06/04 00:29:59;;;;;;;3.15;2.40;;;;;;;36.15;33.21;160707.19;1787761;80;21236;-75
2021/06/04 00:32:31;;;;;;;4.17;3.02;;;;;;;36.28;33.16;160743.31;1752267;82;21245;-76
2021/06/04 00:35:06;;;;;;;2.85;2.55;;;;;;;36.30;33.09;160748.67;1769991;80;21732;-76
2021/06/04 00:37:41;;;;;;;2.98;2.45;;;;;;;36.42;33.00;160779.41;1769769;81;21312;-76
2021/06/04 00:40:17;;;;;;;2.85;2.40;;;;;;;36.40;33.06;160774.11;1772974;80;21149;-76
2021/06/04 00:42:51;;;;;;;2.60;2.30;;;;;;;36.26;33.10;160737.94;1760331;80;21345;-76
2021/06/04 00:45:30;;;;;;;3.10;2.47;;;;;;;36.23;33.11;160729.91;1773115;80;21197;-76
2021/06/04 00:48:03;;;;;;;3.02;2.45;;;;;;;36.19;33.19;160717.86;1790983;80;21374;-76
2021/06/04 00:50:48;;;;;;;2.65;2.35;;;;;;;36.23;33.17;160729.91;1773582;80;21319;-76
2021/06/04 00:53:23;;;;;;;4.25;2.70;;;;;;;36.33;33.05;160756.72;1773532;80;21186;-75
2021/06/04 00:55:58;;;;;;;3.70;2.47;;;;;;;36.03;33.28;160675.09;1791305;80;21834;-76
2021/06/04 00:58:38;;;;;;;2.90;2.30;;;;;;;35.70;33.64;160586.75;1773324;80;21319;-76
2021/06/04 01:01:12;;;;;;;2.67;2.47;;;;;;;35.90;33.64;160638.87;1776649;80;21166;-76
2021/06/04 01:03:57;;;;;;;3.83;2.37;;;;;;;36.22;33.26;160725.91;1773905;80;21179;-76
2021/06/04 01:06:44;;;;;;;4.33;2.58;;;;;;;36.30;33.20;160747.30;1774076;80;21157;-76
2021/06/04 01:09:34;;;;;;;3.25;2.52;;;;;;;36.24;33.27;160732.58;1791624;80;21340;-76
2021/06/04 01:12:30;;;;;;;3.80;2.62;;;;;;;36.35;33.09;160760.70;1791742;79;21217;-76
2021/06/04 01:15:30;;;;;;;3.22;2.90;;;;;;;36.15;33.25;160707.19;1791557;80;21226;-75
2021/06/04 01:22:17;;;;;;;3.10;2.70;;;;;;;35.75;33.65;160600.09;1760085;81;21231;-76
2021/06/04 01:24:58;;;;;;;6.37;4.03;;;;;;;36.09;33.37;160691.11;1758917;81;21212;-76
2021/06/04 01:27:34;;;;;;;3.00;2.45;;;;;;;36.00;33.45;160665.67;1775400;80;21487;-76
2021/06/04 01:30:25;;;;;;;3.00;2.65;;;;;;;36.06;33.37;160681.75;1784017;80;21204;-76
2021/06/04 01:33:15;;;;;;;2.67;2.47;;;;;;;35.92;33.52;160644.23;1754777;82;21321;-75
2021/06/04 01:35:53;;;;;;;3.80;2.70;;;;;;;35.97;33.53;160658.95;1754209;81;21305;-75
2021/06/04 01:38:33;;;;;;;5.70;2.60;;;;;;;35.94;33.56;160649.59;1762796;80;21832;-75
2021/06/04 01:41:12;;;;;;;3.45;2.50;;;;;;;35.93;33.59;160646.92;1728799;83;21213;-76
2021/06/04 01:43:49;;;;;;;3.22;2.77;;;;;;;35.69;33.71;160582.70;1791382;80;21460;-75
2021/06/04 01:46:38;;;;;;;4.70;2.67;;;;;;;35.78;33.77;160606.77;1791731;80;21810;-75
2021/06/04 01:49:15;;;;;;;5.83;3.00;;;;;;;35.51;34.02;160535.84;1791598;80;21309;-75
2021/06/04 01:51:53;;;;;;;3.85;2.87;;;;;;;35.68;33.98;160580.03;1791755;80;21341;-76
2021/06/04 01:54:48;;;;;;;4.80;2.90;;;;;;;35.71;33.95;160588.06;1758753;81;21362;-75
2021/06/04 01:57:28;;;;;;;4.95;2.70;;;;;;;35.97;33.76;160658.95;1772528;80;21223;-75
2021/06/04 02:00:04;;;;;;;3.80;2.87;;;;;;;36.30;33.50;160748.67;1774088;80;21350;-76
2021/06/04 02:02:48;;;;;;;3.72;2.80;;;;;;;34.73;34.83;160324.55;1764533;81;21730;-76
2021/06/04 02:05:38;;;;;;;3.12;2.70;;;;;;;34.69;35.06;160315.20;1757330;81;21279;-75
2021/06/04 02:08:24;;;;;;;3.35;2.70;;;;;;;34.68;35.15;160311.16;1764480;80;21803;-76
2021/06/04 02:10:57;;;;;;;6.58;3.33;;;;;;;34.49;35.39;160260.33;1757315;81;21296;-76
2021/06/04 02:13:30;;;;;;;3.17;2.77;;;;;;;34.45;35.50;160249.63;1788025;80;21165;-76
2021/06/04 02:16:15;;;;;;;4.15;2.72;;;;;;;34.45;35.55;160249.63;1739682;80;21901;-75
2021/06/04 02:19:02;;;;;;;4.17;3.40;;;;;;;34.43;35.62;160245.63;1786157;80;21375;-75
2021/06/04 02:21:48;;;;;;;6.80;2.75;;;;;;;34.44;35.62;160248.31;1787644;80;21323;-75
2021/06/04 02:24:34;;;;;;;2.95;2.62;;;;;;;34.42;35.70;160241.64;1756282;82;21230;-75
2021/06/04 02:27:14;;;;;;;4.17;3.00;;;;;;;34.42;35.73;160241.64;1756087;82;21257;-75
2021/06/04 02:29:54;;;;;;;4.20;3.45;;;;;;;34.38;35.80;160230.94;1761215;81;22034;-75
2021/06/04 02:32:37;;;;;;;8.40;3.92;;;;;;;34.36;35.85;160226.94;1749878;80;21346;-75
2021/06/04 02:35:15;;;;;;;6.97;3.10;;;;;;;34.37;35.87;160228.25;1776796;80;21168;-75
2021/06/04 02:38:00;;;;;;;3.98;2.95;;;;;;;34.38;35.88;160232.25;1756169;82;21232;-75
2021/06/04 02:40:41;;;;;;;4.05;3.08;;;;;;;34.37;35.91;160228.25;1756158;82;21735;-75
2021/06/04 02:43:24;;;;;;;5.40;2.67;;;;;;;34.36;35.94;160226.94;1788632;80;21323;-75
2021/06/04 02:46:07;;;;;;;3.85;3.20;;;;;;;34.37;35.99;160229.63;1718446;82;21396;-75
2021/06/04 02:48:46;;;;;;;3.65;2.90;;;;;;;34.34;36.05;160220.22;1768959;80;21316;-75
2021/06/04 02:51:40;;;;;;;4.58;3.15;;;;;;;34.21;36.17;160186.84;1756386;82;21236;-75
2021/06/04 02:54:16;;;;;;;6.92;3.27;;;;;;;34.29;36.15;160206.89;1784549;80;21833;-75
2021/06/04 02:56:55;;;;;;;5.92;3.10;;;;;;;34.28;36.17;160205.53;1785697;80;21339;-75
2021/06/04 02:59:36;;;;;;;5.50;3.22;;;;;;;34.32;36.18;160216.23;1781115;80;21324;-75
2021/06/04 03:02:13;;;;;;;4.00;3.20;;;;;;;34.33;36.19;160218.91;1785453;80;21357;-75
2021/06/04 03:04:51;;;;;;;5.05;3.10;;;;;;;34.33;36.18;160218.91;1780281;80;21330;-76
2021/06/04 03:07:31;;;;;;;4.60;2.70;;;;;;;34.33;36.21;160217.55;1772437;80;21161;-75
2021/06/04 03:10:09;;;;;;;6.15;2.80;;;;;;;34.34;36.22;160221.59;1776375;80;21766;-75
2021/06/04 03:12:45;;;;;;;5.67;3.20;;;;;;;34.36;36.23;160225.58;1780122;80;21313;-75
2021/06/04 03:15:32;;;;;;;4.53;3.20;;;;;;;34.31;36.32;160212.25;1785856;80;21172;-75
2021/06/04 03:18:09;;;;;;;3.08;2.52;;;;;;;34.19;36.47;160181.48;1755321;82;21179;-75
2021/06/04 03:20:44;;;;;;;3.30;2.72;;;;;;;34.29;36.36;160206.89;1755910;82;21670;-75
2021/06/04 03:23:20;;;;;;;4.42;3.20;;;;;;;34.28;36.43;160205.53;1784333;80;21307;-75
2021/06/04 03:25:55;;;;;;;3.77;2.70;;;;;;;35.07;36.17;160416.81;1762305;80;21154;-75
2021/06/04 03:28:28;;;;;;;3.70;2.55;;;;;;;34.60;35.88;160291.16;1778613;80;21185;-75
2021/06/04 03:31:01;;;;;;;4.33;2.80;;;;;;;34.46;36.17;160253.66;1749841;80;21443;-76
2021/06/04 03:33:35;;;;;;;5.17;2.87;;;;;;;34.43;36.25;160245.63;1752451;80;21314;-76
2021/06/04 03:36:13;;;;;;;4.62;2.90;;;;;;;34.43;36.26;160245.63;1779085;80;21306;-77
2021/06/04 03:38:46;;;;;;;5.10;2.83;;;;;;;34.40;36.30;160237.59;1775788;80;21405;-78
2021/06/04 03:41:23;;;;;;;4.92;3.37;;;;;;;34.44;36.27;160248.31;1780016;79;21354;-78
2021/06/04 03:43:56;;;;;;;3.72;2.90;;;;;;;34.42;36.33;160241.64;1730278;81;21150;-78
2021/06/04 03:46:31;;;;;;;4.20;3.08;;;;;;;34.44;36.34;160246.95;1743291;80;21157;-77
2021/06/04 03:49:04;;;;;;;3.27;2.85;;;;;;;34.47;36.30;160254.97;1748100;80;21169;-80
2021/06/04 03:51:40;;;;;;;5.35;2.92;;;;;;;34.44;36.38;160246.95;1724087;80;21359;-78
2021/06/04 03:54:17;;;;;;;4.28;2.83;;;;;;;34.77;36.02;160335.25;1746181;80;21248;-75
2021/06/04 03:56:50;;;;;;;4.78;3.17;;;;;;;35.83;35.35;160620.17;1746068;79;21735;-78
2021/06/04 03:59:23;;;;;;;3.15;2.40;;;;;;;34.64;36.13;160301.81;1745953;79;21744;-78
2021/06/04 04:02:02;;;;;;;4.10;2.50;;;;;;;34.51;36.35;160265.69;1760935;79;21426;-78
2021/06/04 04:04:35;;;;;;;3.98;3.02;;;;;;;34.46;36.44;160253.66;1769403;79;21335;-78
2021/06/04 04:07:08;;;;;;;3.83;2.77;;;;;;;34.51;36.44;160267.00;1762341;79;21782;-79
2021/06/04 04:09:41;;;;;;;6.83;3.10;;;;;;;34.54;36.43;160273.72;1760983;79;21315;-79
2021/06/04 04:12:17;;;;;;;4.87;3.35;;;;;;;34.58;36.42;160284.44;1762442;79;21208;-76
2021/06/04 04:14:50;;;;;;;4.72;3.12;;;;;;;34.50;36.49;160264.31;1762648;79;21185;-77
2021/06/04 04:17:23;;;;;;;5.58;3.10;;;;;;;34.43;36.58;160245.63;1763667;79;21763;-77
2021/06/04 04:19:58;;;;;;;5.97;3.00;;;;;;;34.46;36.59;160253.66;1732175;80;21220;-77
2021/06/04 04:22:33;;;;;;;5.65;2.62;;;;;;;34.43;36.64;160245.63;1766808;79;21748;-79
2021/06/04 04:25:07;;;;;;;4.58;2.42;;;;;;;34.49;36.59;160260.33;1733732;80;21763;-77
2021/06/04 04:27:40;;;;;;;4.58;2.92;;;;;;;34.48;36.60;160257.66;1771822;79;21255;-77
2021/06/04 04:30:14;;;;;;;4.35;2.85;;;;;;;34.49;36.61;160261.64;1762693;79;21371;-75
2021/06/04 04:32:47;;;;;;;5.78;2.70;;;;;;;34.56;36.56;160279.03;1764825;79;21326;-77
2021/06/04 04:35:25;;;;;;;6.40;3.00;;;;;;;34.65;36.50;160303.17;1759184;79;21401;-76
2021/06/04 04:37:58;;;;;;;5.92;2.42;;;;;;;34.65;36.46;160303.17;1737490;80;21181;-76
2021/06/04 04:40:34;;;;;;;4.45;3.10;;;;;;;34.70;36.43;160316.50;1760976;79;21834;-76
2021/06/04 04:43:09;;;;;;;4.67;3.10;;;;;;;34.72;36.40;160323.17;1767681;79;21318;-78
2021/06/04 04:45:42;;;;;;;5.17;3.00;;;;;;;34.72;36.39;160323.17;1763274;79;21465;-75
2021/06/04 04:48:14;;;;;;;5.15;2.67;;;;;;;34.78;36.43;160337.94;1767683;79;21311;-79
2021/06/04 04:50:48;;;;;;;5.28;3.00;;;;;;;34.80;36.45;160343.23;1767219;78;21280;-77
2021/06/04 04:53:22;;;;;;;5.37;2.87;;;;;;;34.81;36.43;160347.28;1770374;79;21335;-79
2021/06/04 04:55:55;;;;;;;4.40;3.02;;;;;;;34.84;36.43;160355.27;1767485;79;21208;-82
2021/06/04 04:58:28;;;;;;;3.80;3.05;;;;;;;34.91;36.38;160374.02;1770448;79;21315;-77
2021/06/04 05:01:02;;;;;;;4.20;3.17;;;;;;;34.94;36.39;160382.05;1773422;79;21745;-77
2021/06/04 05:03:35;;;;;;;3.52;2.77;;;;;;;34.95;36.39;160384.72;1752211;81;21358;-79
2021/06/04 05:06:08;;;;;;;3.22;2.80;;;;;;;35.00;36.38;160398.06;1765948;80;21208;-79
2021/06/04 05:08:41;;;;;;;4.37;2.70;;;;;;;35.04;36.37;160407.41;1772388;80;21157;-79
2021/06/04 05:11:15;;;;;;;8.75;2.60;;;;;;;35.06;36.40;160414.19;1766762;80;21476;-79
2021/06/04 05:13:49;;;;;;;8.70;3.10;;;;;;;35.12;36.38;160428.89;1764356;80;21315;-79
2021/06/04 05:16:22;;;;;;;6.33;2.85;;;;;;;35.10;36.48;160424.84;1770786;80;21300;-78
2021/06/04 05:18:54;;;;;;;4.10;3.02;;;;;;;35.12;36.54;160430.20;1763229;80;21846;-79
2021/06/04 05:21:27;;;;;;;4.08;3.00;;;;;;;35.16;36.57;160440.92;1768568;80;21154;-79
2021/06/04 05:24:00;;;;;;;5.50;3.00;;;;;;;35.18;36.58;160446.28;1777166;80;22046;-79
2021/06/04 05:26:33;;;;;;;5.08;2.98;;;;;;;35.17;36.61;160443.59;1774578;78;21252;-79
2021/06/04 05:29:06;;;;;;;7.33;2.87;;;;;;;35.19;36.70;160450.27;1813017;79;21236;-79
2021/06/04 05:31:40;;;;;;;4.90;3.02;;;;;;;35.24;36.74;160462.30;1789896;78;21350;-78
2021/06/04 05:34:12;;;;;;;7.00;3.00;;;;;;;35.31;36.70;160482.36;1791376;80;21315;-78
2021/06/04 05:36:45;;;;;;;4.08;2.83;;;;;;;35.33;36.74;160486.36;1791294;80;21357;-79
2021/06/04 05:39:22;;;;;;;5.03;2.72;;;;;;;35.36;36.75;160495.70;1791404;80;21711;-78
2021/06/04 05:42:00;;;;;;;5.97;3.10;;;;;;;35.44;36.69;160517.14;1778893;80;21322;-79
2021/06/04 05:44:33;;;;;;;4.03;2.72;;;;;;;35.55;36.53;160546.61;1773106;80;21359;-78
2021/06/04 05:47:10;;;;;;;4.42;2.40;;;;;;;35.54;36.54;160542.56;1720965;83;21381;-78
2021/06/04 05:49:43;;;;;;;3.95;2.75;;;;;;;35.52;36.54;160537.27;1751082;80;21185;-78
2021/06/04 05:52:15;;;;;;;3.62;2.65;;;;;;;35.53;36.51;160539.94;1781804;80;21298;-78
2021/06/04 05:54:48;;;;;;;4.28;2.40;;;;;;;35.56;36.49;160547.92;1781880;80;21168;-78
2021/06/04 05:57:20;;;;;;;5.12;2.40;;;;;;;35.61;36.46;160562.62;1782930;80;21896;-78
2021/06/04 05:59:53;;;;;;;3.42;2.60;;;;;;;35.75;36.36;160600.09;1761760;80;21239;-79
2021/06/04 06:02:25;;;;;;;4.95;2.75;;;;;;;35.78;36.32;160606.77;1784828;80;21359;-79
2021/06/04 06:04:57;;;;;;;4.90;2.90;;;;;;;35.71;36.42;160588.06;1785210;80;21277;-78
2021/06/04 06:07:29;;;;;;;3.98;2.45;;;;;;;35.68;36.53;160580.03;1767657;80;21167;-78
2021/06/04 06:10:01;;;;;;;5.10;2.60;;;;;;;35.73;36.56;160593.42;1788798;80;21735;-78
2021/06/04 06:12:34;;;;;;;6.30;2.58;;;;;;;35.74;36.71;160597.42;1788693;80;21363;-78
2021/06/04 06:15:07;;;;;;;3.42;2.60;;;;;;;35.79;36.79;160610.81;1756443;82;21712;-78
2021/06/04 06:17:40;;;;;;;7.00;3.10;;;;;;;35.82;36.81;160618.80;1788608;80;21161;-79
2021/06/04 06:20:15;;;;;;;5.50;2.83;;;;;;;35.91;36.78;160642.92;1788591;80;21358;-80
2021/06/04 06:22:48;;;;;;;5.90;2.45;;;;;;;35.95;36.74;160652.28;1756368;82;21185;-80
2021/06/04 06:25:25;;;;;;;4.72;2.80;;;;;;;35.99;36.52;160664.36;1789123;80;21315;-80
2021/06/04 06:27:58;;;;;;;9.80;2.70;;;;;;;36.00;36.49;160665.67;1788644;80;21201;-80
2021/06/04 06:30:31;;;;;;;7.53;3.00;;;;;;;36.09;36.38;160692.48;1756209;82;21201;-79
2021/06/04 06:33:04;;;;;;;7.40;2.80;;;;;;;36.33;36.09;160755.34;1784944;80;21291;-80
2021/06/04 06:35:49;;;;;;;4.60;2.95;;;;;;;36.23;36.15;160729.91;1746440;80;21866;-79
2021/06/04 06:38:22;;;;;;;5.22;2.80;;;;;;;36.21;36.25;160723.22;1767871;80;21184;-78
2021/06/04 06:40:55;;;;;;;5.87;2.92;;;;;;;36.21;36.29;160724.59;1780313;80;21192;-78
2021/06/04 06:43:30;;;;;;;3.87;2.27;;;;;;;36.25;36.35;160733.95;1780023;80;21235;-79
2021/06/04 06:46:02;;;;;;;3.98;2.20;;;;;;;36.26;36.13;160737.94;1767264;80;21221;-79
2021/06/04 06:48:36;;;;;;;4.78;1.85;;;;;;;36.31;35.72;160749.98;1788307;80;21304;-78
2021/06/04 06:51:09;;;;;;;4.87;1.85;;;;;;;36.33;35.11;160756.72;1788939;80;21858;-77
2021/06/04 06:53:42;;;;;;;3.87;1.25;;;;;;;36.44;34.54;160786.19;1756114;82;21226;-78
2021/06/04 06:56:16;;;;;;;4.10;1.42;;;;;;;36.51;34.29;160803.59;1788348;80;21415;-78
2021/06/04 06:58:49;;;;;;;4.80;1.30;;;;;;;36.54;34.08;160812.95;1766206;80;21311;-77
2021/06/04 07:01:21;;;;;;;2.70;1.57;;;;;;;36.54;33.95;160811.59;1759275;81;21160;-77
2021/06/04 07:03:53;;;;;;;4.17;2.30;;;;;;;36.62;33.75;160833.03;1768450;80;21191;-77
2021/06/04 07:06:29;;;;;;;2.05;1.57;;;;;;;36.70;33.78;160855.75;1769674;81;21247;-77
2021/06/04 07:09:01;;;;;;;3.10;1.75;;;;;;;36.77;33.75;160874.52;1769832;81;21223;-77
2021/06/04 07:11:36;;;;;;;3.50;1.50;;;;;;;36.81;33.70;160883.89;1769737;81;21884;-77
2021/06/04 07:14:10;;;;;;;3.85;1.60;;;;;;;36.89;33.36;160906.66;1737684;82;21231;-78
2021/06/04 07:16:42;;;;;;;2.87;1.40;;;;;;;36.99;33.10;160932.09;1737595;82;21731;-77
2021/06/04 07:19:14;;;;;;;2.75;1.60;;;;;;;37.04;32.92;160946.83;1737893;82;21247;-82
2021/06/04 07:21:47;;;;;;;2.17;1.50;;;;;;;37.10;32.58;160962.92;1738078;82;21330;-79
2021/06/04 07:24:21;;;;;;;2.12;1.52;;;;;;;37.16;32.34;160978.97;1738796;82;21699;-77
2021/06/04 07:26:55;;;;;;;6.28;1.67;;;;;;;37.20;32.35;160989.69;1739260;82;21189;-79
2021/06/04 07:29:29;;;;;;;3.17;1.50;;;;;;;37.23;32.09;160997.73;1739488;82;21790;-79
2021/06/04 07:32:02;;;;;;;6.53;2.42;;;;;;;37.25;32.02;161004.41;1737934;81;21245;-77
2021/06/04 07:34:34;;;;;;;3.27;1.50;;;;;;;37.31;32.04;161019.16;1737855;82;21841;-77
2021/06/04 07:37:07;;;;;;;3.22;1.17;;;;;;;37.31;31.84;161020.52;1738057;82;21283;-81
2021/06/04 07:39:39;;;;;;;2.22;1.05;;;;;;;37.37;31.58;161035.30;1709812;84;21257;-78
2021/06/04 07:42:13;;;;;;;2.75;1.22;;;;;;;37.38;31.15;161037.97;1709846;84;21783;-77
2021/06/04 07:44:47;;;;;;;4.25;1.85;;;;;;;37.38;30.73;161039.28;1741676;81;21220;-76
2021/06/04 07:47:20;;;;;;;3.35;1.55;;;;;;;37.46;30.66;161059.38;1729234;81;21217;-79
2021/06/04 07:49:53;;;;;;;6.22;1.45;;;;;;;37.52;30.60;161075.42;1729903;81;21212;-81
2021/06/04 07:52:26;;;;;;;1.77;1.15;;;;;;;37.53;30.42;161078.11;1711531;81;21192;-78
2021/06/04 07:54:59;;;;;;;1.85;1.37;;;;;;;37.59;30.25;161094.20;1712562;81;21216;-80
2021/06/04 07:57:32;;;;;;;4.22;1.47;;;;;;;37.67;30.45;161116.98;1712845;81;21220;-79
2021/06/04 08:00:11;;;;;;;3.42;1.30;;;;;;;37.72;30.58;161130.36;1715381;81;21213;-78
2021/06/04 08:02:44;;;;;;;;;;;;;;;37.72;30.30;161130.36;1719590;81;22670;-79
2021/06/04 08:05:17;;;;;;;5.00;1.35;;;;;;;37.80;30.04;161151.81;1733995;80;20186;-83
2021/06/04 08:07:50;;;;;;;2.52;1.55;;;;;;;37.85;30.06;161163.92;1741854;80;21236;-78
2021/06/04 08:10:23;;;;;;;1.30;1.12;;;;;;;37.84;30.14;161161.23;1742733;80;21284;-78
2021/06/04 08:12:55;;;;;;;1.95;1.30;;;;;;;37.85;30.06;161163.92;1742926;80;21221;-78
2021/06/04 08:15:37;;;;;;;2.15;1.30;;;;;;;37.84;29.83;161161.23;1742372;80;21334;-78
2021/06/04 08:18:10;;;;;;;4.63;1.70;;;;;;;37.88;29.78;161171.92;1743094;80;21645;-81
2021/06/04 08:20:43;;;;;;;4.60;1.57;;;;;;;37.85;29.78;161163.92;1744102;80;21180;-79
2021/06/04 08:23:20;;;;;;;2.05;1.20;;;;;;;37.87;29.66;161169.23;1745529;80;21456;-82
2021/06/04 08:26:00;;;;;;;3.95;1.40;;;;;;;37.90;29.62;161178.66;1760493;79;21883;-79
2021/06/04 08:28:29;;;;;;;2.75;1.17;;;;;;;37.87;29.68;161170.59;1759472;79;21232;-80
2021/06/04 08:31:02;;;;;;;6.55;1.92;;;;;;;37.91;29.62;161181.28;1765754;79;21425;-78
2021/06/04 08:33:41;;;;;;;4.60;1.55;;;;;;;37.93;29.37;161186.66;1763871;79;21260;-80
2021/06/04 08:36:18;;;;;;;6.78;1.77;;;;;;;37.92;29.43;161182.66;1776182;79;21390;-78
2021/06/04 08:38:51;;;;;;;3.58;1.20;;;;;;;37.89;29.60;161174.59;1761989;79;21183;-79
2021/06/04 08:41:51;;;;;;;3.20;1.40;;;;;;;37.92;29.65;161182.66;1764316;79;21197;-80
2021/06/04 08:44:43;;;;;;;5.20;1.30;;;;;;;37.88;29.60;161171.92;1757265;80;21429;-78
2021/06/04 08:47:22;;;;;;;2.15;1.60;;;;;;;37.87;29.65;161169.23;1763706;79;21378;-76
2021/06/04 08:50:14;;;;;;;3.52;1.20;;;;;;;37.88;29.69;161171.92;1773133;79;21308;-77
2021/06/04 08:53:03;;;;;;;3.27;1.35;;;;;;;37.93;29.60;161186.66;1762017;79;21366;-82
2021/06/04 08:56:04;;;;;;;1.77;1.30;;;;;;;37.95;29.39;161190.70;1727670;81;21197;-80
2021/06/04 08:59:00;;;;;;;3.75;1.32;;;;;;;37.98;29.49;161198.70;1760027;79;21563;-78
2021/06/04 09:02:00;;;;;;;2.55;1.32;;;;;;;38.00;29.46;161206.75;1735670;80;21224;-78
2021/06/04 09:04:40;;;;;;;1.70;1.25;;;;;;;38.04;29.23;161217.50;1764274;79;21338;-80
2021/06/04 09:07:32;;;;;;;2.95;1.40;;;;;;;38.05;29.17;161220.17;1764500;79;21382;-79
2021/06/04 09:10:26;;;;;;;3.55;1.12;;;;;;;38.05;29.23;161220.17;1737669;79;21256;-79
2021/06/04 09:13:13;;;;;;;3.80;1.27;;;;;;;38.07;29.30;161225.53;1739565;81;21182;-79
2021/06/04 09:15:46;;;;;;;6.00;1.40;;;;;;;38.11;29.14;161234.91;1750501;80;21209;-80
2021/06/04 09:18:27;;;;;;;2.15;1.17;;;;;;;38.13;29.06;161241.59;1743212;79;21493;-82
2021/06/04 09:21:04;;;;;;;2.15;1.45;;;;;;;38.17;29.02;161252.33;1741773;80;22021;-78
2021/06/04 09:23:39;;;;;;;2.72;1.02;;;;;;;38.18;29.13;161255.02;1746153;79;21332;-78
2021/06/04 09:26:18;;;;;;;7.75;1.15;;;;;;;38.21;28.99;161263.02;1760116;79;21227;-78
2021/06/04 09:29:13;;;;;;;3.65;1.20;;;;;;;38.17;28.95;161250.97;1764372;78;22291;-76
2021/06/04 09:32:02;;;;;;;1.98;1.17;;;;;;;38.16;29.06;161249.64;1766613;79;21350;-76
2021/06/04 09:34:34;;;;;;;2.02;1.27;;;;;;;38.25;28.84;161273.81;1765090;79;21406;-79
2021/06/04 09:37:23;;;;;;;3.65;1.47;;;;;;;38.20;28.72;161259.02;1739806;80;21248;-78
2021/06/04 09:40:22;;;;;;;1.90;1.10;;;;;;;38.24;28.73;161271.12;1769042;79;21268;-79
2021/06/04 09:43:18;;;;;;;3.27;1.00;;;;;;;38.30;28.73;161287.22;1759160;79;21323;-79
2021/06/04 09:46:00;;;;;;;1.32;1.17;;;;;;;38.36;28.96;161303.28;1762896;79;21157;-78
2021/06/04 09:48:54;;;;;;;1.33;1.00;;;;;;;38.38;28.84;161307.28;1759159;79;21231;-82
2021/06/04 09:51:33;;;;;;;2.20;1.10;;;;;;;38.40;28.77;161312.64;1774033;79;21173;-80
2021/06/04 09:54:27;;;;;;;2.22;1.55;;;;;;;38.39;28.75;161309.97;1768208;79;21208;-77
2021/06/04 09:57:12;;;;;;;2.17;1.22;;;;;;;38.36;28.78;161303.28;1761108;79;21327;-77
2021/06/04 09:59:45;;;;;;;2.75;1.10;;;;;;;38.45;28.82;161326.06;1764374;79;21210;-78
2021/06/04 10:02:35;;;;;;;3.15;1.10;;;;;;;38.52;28.63;161346.17;1761557;79;21233;-79
2021/06/04 10:05:19;;;;;;;2.33;1.67;;;;;;;38.55;28.70;161352.86;1761601;79;21377;-80
2021/06/04 10:08:21;;;;;;;2.90;1.07;;;;;;;38.59;28.81;161363.59;1763414;79;21740;-77
2021/06/04 10:11:14;;;;;;;4.28;1.27;;;;;;;38.65;28.78;161381.08;1715157;81;21233;-78
2021/06/04 10:14:21;;;;;;;2.00;1.25;;;;;;;38.70;28.45;161393.12;1730043;80;21182;-77
2021/06/04 10:17:38;;;;;;;3.12;1.47;;;;;;;38.69;28.29;161390.45;1731854;80;21705;-77
2021/06/04 10:20:01;;;;;;;2.20;1.00;;;;;;;38.64;28.22;161378.34;1731896;80;21193;-78
2021/06/04 10:22:40;;;;;;;2.72;1.27;;;;;;;38.66;28.18;161383.70;1732362;80;21237;-78
2021/06/04 10:25:18;;;;;;;3.50;0.98;;;;;;;38.71;28.36;161395.81;1734399;80;21166;-78
2021/06/04 10:27:56;;;;;;;3.17;1.20;;;;;;;38.72;28.37;161398.45;1733603;80;21721;-76
2021/06/04 10:30:39;;;;;;;2.90;1.00;;;;;;;38.84;28.29;161432.00;1734789;80;21250;-77
2021/06/04 10:33:35;;;;;;;5.00;0.80;;;;;;;38.90;28.37;161448.05;1736101;80;21154;-76
2021/06/04 10:36:07;;;;;;;3.83;1.22;;;;;;;39.01;28.24;161477.53;1735917;80;21217;-80
2021/06/04 10:38:55;;;;;;;2.15;1.22;;;;;;;39.07;28.22;161493.64;1736163;80;21211;-80
2021/06/04 10:41:50;;;;;;;2.17;0.95;;;;;;;39.09;28.31;161499.08;1734116;80;21181;-80
2021/06/04 10:44:44;;;;;;;1.75;0.90;;;;;;;39.12;28.28;161507.13;1740650;80;21208;-81
2021/06/04 10:47:52;;;;;;;5.50;1.00;;;;;;;39.23;28.01;161537.94;1734666;81;21343;-77
2021/06/04 10:50:34;;;;;;;1.42;0.93;;;;;;;39.24;28.05;161540.63;1740375;81;21209;-80
2021/06/04 10:53:12;;;;;;;1.62;0.85;;;;;;;39.38;27.97;161578.17;1750117;80;21855;-80
2021/06/04 10:56:26;;;;;;;2.77;1.10;;;;;;;39.37;28.04;161574.13;1749088;82;21211;-80
2021/06/04 10:59:41;;;;;;;2.87;1.37;;;;;;;39.44;28.09;161592.92;1761675;80;21382;-80
2021/06/04 11:02:51;;;;;;;3.85;0.90;;;;;;;39.61;27.88;161638.53;1772130;80;21157;-77
2021/06/04 11:05:53;;;;;;;2.17;1.07;;;;;;;39.66;28.03;161653.28;1788700;80;21299;-77
2021/06/04 11:08:43;;;;;;;;;;;;;;;39.73;27.80;161672.09;1730522;83;21236;-76
2021/06/04 11:11:31;;;;;;;2.37;1.10;;;;;;;39.77;27.65;161681.47;1717110;83;20214;-75
2021/06/04 11:14:40;;;;;;;3.33;1.12;;;;;;;39.93;27.52;161724.47;1760432;81;21833;-76
2021/06/04 11:17:38;;;;;;;1.42;1.02;;;;;;;39.93;27.63;161725.78;1757678;81;21703;-75
2021/06/04 11:20:27;;;;;;;1.47;1.02;;;;;;;40.05;27.36;161759.30;1791726;80;21838;-75
2021/06/04 11:23:07;;;;;;;1.22;0.90;;;;;;;40.00;27.34;161745.91;1791944;80;21347;-75
2021/06/04 11:26:04;;;;;;;1.75;1.15;;;;;;;39.95;27.29;161732.47;1791969;80;21145;-78
2021/06/04 11:28:58;;;;;;;2.52;1.12;;;;;;;40.06;27.16;161760.66;1791772;80;21313;-77
2021/06/04 11:31:44;;;;;;;1.45;1.02;;;;;;;40.09;27.10;161770.03;1746986;81;21176;-77
2021/06/04 11:34:33;;;;;;;1.50;1.10;;;;;;;40.09;27.10;161768.72;1791841;80;21307;-77
2021/06/04 11:37:07;;;;;;;1.02;0.90;;;;;;;40.09;27.13;161768.72;1791802;80;21719;-77
2021/06/04 11:39:42;;;;;;;1.60;1.10;;;;;;;40.17;27.23;161790.17;1771471;81;21195;-78
2021/06/04 11:42:26;;;;;;;4.30;1.02;;;;;;;40.16;27.15;161788.80;1760511;81;21218;-78
2021/06/04 11:45:00;;;;;;;3.90;0.90;;;;;;;40.18;27.23;161792.86;1758198;80;21315;-78
2021/06/04 11:47:37;;;;;;;7.22;1.32;;;;;;;40.20;27.22;161799.55;1791605;80;21394;-78
2021/06/04 11:50:26;;;;;;;2.55;1.00;;;;;;;40.29;27.22;161823.69;1754670;82;21210;-77
2021/06/04 11:53:34;;;;;;;4.22;1.40;;;;;;;40.35;27.29;161838.50;1754725;82;21443;-78
2021/06/04 11:56:45;;;;;;;2.77;0.90;;;;;;;40.38;27.27;161847.92;1754717;82;21162;-78
2021/06/04 11:59:42;;;;;;;1.55;1.10;;;;;;;40.43;27.07;161860.00;1754641;81;22501;-78
2021/06/04 12:02:39;;;;;;;3.40;1.32;;;;;;;40.48;26.90;161874.75;1763562;80;21325;-78
2021/06/04 12:05:22;;;;;;;2.37;1.20;;;;;;;40.43;26.97;161861.31;1754685;82;21405;-79
2021/06/04 12:08:17;;;;;;;1.50;0.95;;;;;;;40.45;26.75;161865.38;1754902;81;21192;-83
2021/06/04 12:10:58;;;;;;;5.12;1.00;;;;;;;40.49;26.90;161876.06;1743646;80;21222;-77
2021/06/04 12:13:54;;;;;;;2.02;1.00;;;;;;;40.28;26.91;161821.00;1755658;81;21863;-76
2021/06/04 12:16:37;;;;;;;1.98;1.10;;;;;;;40.60;26.43;161906.97;1740006;82;21177;-78
2021/06/04 12:19:31;;;;;;;1.20;0.80;;;;;;;40.60;26.43;161906.97;1755592;82;21372;-78
2021/06/04 12:22:11;;;;;;;4.17;1.30;;;;;;;40.67;26.62;161924.41;1740361;81;21259;-78
2021/06/04 12:24:49;;;;;;;2.80;1.02;;;;;;;40.71;26.65;161935.11;1765512;80;21330;-78
2021/06/04 12:27:56;;;;;;;4.37;1.55;;;;;;;40.85;26.13;161974.11;1773686;81;21303;-78
2021/06/04 12:30:55;;;;;;;7.70;1.30;;;;;;;40.85;26.13;161974.11;1782884;80;21655;-77